KNID

China Lake Naws (Armitage Field) Airport

China Lake, California, USA
METAR KNID 160556Z 20011KT 10SM CLR 31/07 A2990 RMK AO2 SLP098 T03110072 10400 20311 51018 $
Observed Flight Rules
Aug-16 @ 05:56 UTC (20 minutes ago) Visual Flight Rules
Wind Visibility Clouds
200° at 11 knots 10 miles
  • Clear skies
Temperatures Readings
Current 31°C / 88°F
Dewpoint 7°C / 45°F
Humidity 22%
Altimeter 29.9" Hg
Pressure 1009.8 hPa
Elevation 696
METAR KNID 160556Z 20011KT 10SM CLR 31/07 A2990 RMK AO2 SLP098 T03110072 10400 20311 51018 $
Observed Flight Rules
Aug-16 @ 05:56 UTC
(20 minutes ago)
VFR
Wind Visibility
200° at 11 knots 10 miles
Clouds
  • Clear skies
Temperature Dewpoint
31°C / 88°F 7°C / 45°F
Humidity Altimeter Pressure
22% 29.9" Hg 1009.8 hPa